createdAt,value
2022-10-28T00:00:53.786Z,78.23
2022-10-28T00:03:21.808Z,77.33
2022-10-28T00:05:49.791Z,77.00
2022-10-28T00:08:17.713Z,74.20
2022-10-28T00:10:45.618Z,71.73
2022-10-28T00:13:13.522Z,82.50
2022-10-28T00:15:42.802Z,80.47
2022-10-28T00:18:11.289Z,76.43
2022-10-28T00:20:39.274Z,81.80
2022-10-28T00:23:07.210Z,69.17
2022-10-28T00:25:35.155Z,84.13
2022-10-28T00:28:03.083Z,77.07
2022-10-28T00:33:00.233Z,71.20
2022-10-28T00:35:28.185Z,84.87
2022-10-28T00:37:56.127Z,87.53
2022-10-28T00:40:24.193Z,77.20
2022-10-28T00:42:52.462Z,80.37
2022-10-28T00:45:20.655Z,87.63
2022-10-28T00:47:55.603Z,83.57
2022-10-28T00:50:38.954Z,75.33
2022-10-28T00:53:11.108Z,75.53
2022-10-28T00:55:39.413Z,78.63
2022-10-28T00:58:09.575Z,85.97
2022-10-28T01:00:37.637Z,84.53
2022-10-28T01:03:05.675Z,76.30
2022-10-28T01:05:37.110Z,68.77
2022-10-28T01:08:06.244Z,73.77
2022-10-28T01:11:14.349Z,78.00
2022-10-28T01:14:00.384Z,73.23
2022-10-28T01:16:38.830Z,71.37
2022-10-28T01:19:36.558Z,67.03
2022-10-28T01:22:21.288Z,70.13
2022-10-28T01:25:05.471Z,73.73
2022-10-28T01:27:52.180Z,72.47
2022-10-28T01:30:21.746Z,66.53
2022-10-28T01:32:59.261Z,72.73
2022-10-28T01:35:33.195Z,63.43
2022-10-28T01:38:17.482Z,64.80
2022-10-28T01:40:51.648Z,74.27
2022-10-28T01:43:26.768Z,66.80
2022-10-28T01:46:00.392Z,68.33
2022-10-28T01:48:34.908Z,78.37
2022-10-28T01:51:07.375Z,82.70
2022-10-28T01:53:39.710Z,66.73
2022-10-28T01:56:11.868Z,67.73
2022-10-28T01:58:40.810Z,70.20
2022-10-28T02:01:11.145Z,76.50
2022-10-28T02:03:40.721Z,70.97
2022-10-28T02:06:18.319Z,77.20
2022-10-28T02:08:58.759Z,71.67
2022-10-28T02:11:44.042Z,70.93
2022-10-28T02:14:28.613Z,75.40
2022-10-28T02:17:02.963Z,77.17
2022-10-28T02:19:44.614Z,89.63
2022-10-28T02:22:20.917Z,76.43
2022-10-28T02:24:56.634Z,83.83
2022-10-28T02:27:35.397Z,85.37
2022-10-28T02:30:07.968Z,90.60
2022-10-28T02:32:40.396Z,85.20
2022-10-28T02:35:15.545Z,109.87
2022-10-28T02:37:46.045Z,99.80
2022-10-28T02:40:20.512Z,98.73
2022-10-28T02:42:51.726Z,119.50
2022-10-28T02:45:24.555Z,125.13
2022-10-28T02:47:56.207Z,107.13
2022-10-28T02:50:31.129Z,123.07
2022-10-28T02:53:01.456Z,132.13
2022-10-28T02:55:35.638Z,104.57
2022-10-28T02:58:03.595Z,96.57
2022-10-28T03:00:31.504Z,95.57
2022-10-28T03:02:59.441Z,152.83
2022-10-28T03:05:28.838Z,103.87
2022-10-28T03:07:56.982Z,102.53
2022-10-28T03:10:25.012Z,103.07
2022-10-28T03:12:52.982Z,94.00
2022-10-28T03:15:20.951Z,84.17
2022-10-28T03:17:48.963Z,105.03
2022-10-28T03:20:17.012Z,129.93
2022-10-28T03:22:46.286Z,109.73
2022-10-28T03:25:14.352Z,115.93
2022-10-28T03:27:42.393Z,98.43
2022-10-28T03:30:11.202Z,107.80
2022-10-28T03:32:41.947Z,84.00
2022-10-28T03:35:10.191Z,95.50
2022-10-28T03:37:38.144Z,99.83
2022-10-28T03:40:08.590Z,88.53
2022-10-28T03:42:38.968Z,89.30
2022-10-28T03:45:09.915Z,85.57
2022-10-28T03:47:38.112Z,91.30
2022-10-28T03:50:06.568Z,88.67
2022-10-28T03:52:34.506Z,97.63
2022-10-28T03:55:02.569Z,82.57
2022-10-28T03:57:33.137Z,80.97
2022-10-28T04:00:01.111Z,85.73
2022-10-28T04:02:29.169Z,76.23
2022-10-28T04:04:57.126Z,70.27
2022-10-28T04:07:25.179Z,89.17
2022-10-28T04:09:53.114Z,86.43
2022-10-28T04:12:21.024Z,103.13
2022-10-28T04:14:50.417Z,103.43
2022-10-28T04:17:18.589Z,90.93
2022-10-28T04:19:46.539Z,96.43
2022-10-28T04:22:14.469Z,80.20
2022-10-28T04:24:42.494Z,95.10
2022-10-28T04:27:10.416Z,87.17
2022-10-28T04:29:38.316Z,69.73
2022-10-28T04:32:07.572Z,74.70
2022-10-28T04:34:35.519Z,69.30
2022-10-28T04:37:03.493Z,81.43
2022-10-28T04:39:31.673Z,65.00
2022-10-28T04:41:59.598Z,120.63
2022-10-28T04:44:27.511Z,108.33
2022-10-28T04:46:57.361Z,81.47
2022-10-28T04:49:26.687Z,139.07
2022-10-28T04:51:54.611Z,120.73
2022-10-28T04:54:22.645Z,89.13
2022-10-28T04:56:50.541Z,123.17
2022-10-28T04:59:18.475Z,80.00
2022-10-28T05:01:46.425Z,110.17
2022-10-28T05:04:14.405Z,83.70
2022-10-28T05:06:43.728Z,101.80
2022-10-28T05:09:11.863Z,83.47
2022-10-28T05:11:39.819Z,79.13
2022-10-28T05:14:07.988Z,72.77
2022-10-28T05:16:36.431Z,78.97
2022-10-28T05:19:04.561Z,93.93
2022-10-28T05:21:32.757Z,150.60
2022-10-28T05:24:02.148Z,123.60
2022-10-28T05:26:30.121Z,88.07
2022-10-28T05:28:58.058Z,72.30
2022-10-28T05:31:26.059Z,71.07
2022-10-28T05:33:54.022Z,96.60
2022-10-28T05:36:21.966Z,82.37
2022-10-28T05:38:49.896Z,93.83
2022-10-28T05:41:19.234Z,94.23
2022-10-28T05:43:47.140Z,98.63
2022-10-28T05:46:15.104Z,87.23
2022-10-28T05:48:43.109Z,84.37
2022-10-28T05:51:11.068Z,65.07
2022-10-28T05:53:38.998Z,78.73
2022-10-28T05:56:07.324Z,67.30
2022-10-28T05:58:36.674Z,85.80
2022-10-28T06:01:08.243Z,75.63
2022-10-28T06:03:36.556Z,78.40
2022-10-28T06:06:04.716Z,82.97
2022-10-28T06:08:32.669Z,79.63
2022-10-28T06:10:59.871Z,86.20
2022-10-28T06:13:27.999Z,95.37
2022-10-28T06:15:57.512Z,85.53
2022-10-28T06:18:25.558Z,84.23
2022-10-28T06:20:54.695Z,86.97
2022-10-28T06:23:22.816Z,84.13
2022-10-28T06:25:51.153Z,91.00
2022-10-28T06:28:19.145Z,81.50
2022-10-28T06:30:47.126Z,92.40
2022-10-28T06:33:16.500Z,128.23
2022-10-28T06:35:44.713Z,108.40
2022-10-28T06:38:12.818Z,95.93
2022-10-28T06:40:40.725Z,100.53
2022-10-28T06:43:11.033Z,113.37
2022-10-28T06:45:39.003Z,170.73
2022-10-28T06:48:08.695Z,145.17
2022-10-28T06:50:38.420Z,116.10
2022-10-28T06:53:06.452Z,112.93
2022-10-28T06:55:34.433Z,128.33
2022-10-28T06:58:03.542Z,108.13
2022-10-28T07:00:33.248Z,108.63
2022-10-28T07:03:01.597Z,100.53
2022-10-28T07:05:29.869Z,105.33
2022-10-28T07:07:59.303Z,106.90
2022-10-28T07:10:27.300Z,111.77
2022-10-28T07:12:55.580Z,115.47
2022-10-28T07:15:23.769Z,111.60
2022-10-28T07:17:54.787Z,107.27
2022-10-28T07:20:22.967Z,100.43
2022-10-28T07:22:56.945Z,99.97
2022-10-28T07:25:26.284Z,99.70
2022-10-28T07:27:54.586Z,100.97
2022-10-28T07:30:22.697Z,99.37
2022-10-28T07:32:50.849Z,100.63
2022-10-28T07:35:19.037Z,94.50
2022-10-28T07:37:50.008Z,95.03
2022-10-28T07:40:18.033Z,101.30
2022-10-28T07:42:47.381Z,90.43
2022-10-28T07:45:15.679Z,95.17
2022-10-28T07:47:44.377Z,103.33
2022-10-28T07:50:13.174Z,98.67
2022-10-28T07:52:42.164Z,102.43
2022-10-28T07:55:11.412Z,92.53
2022-10-28T07:57:39.630Z,90.93
2022-10-28T08:00:10.171Z,93.63
2022-10-28T08:02:41.320Z,92.63
2022-10-28T08:05:09.838Z,93.10
2022-10-28T08:07:38.913Z,96.60
2022-10-28T08:10:08.257Z,98.40
2022-10-28T08:12:36.318Z,104.33
2022-10-28T08:15:04.621Z,105.63
2022-10-28T08:17:33.997Z,91.70
2022-10-28T08:20:01.932Z,83.47
2022-10-28T08:22:29.919Z,77.23
2022-10-28T08:24:57.898Z,76.33
2022-10-28T08:27:25.936Z,77.27
2022-10-28T08:29:54.391Z,70.03
2022-10-28T08:32:22.348Z,71.13
2022-10-28T08:34:51.738Z,70.70
2022-10-28T08:37:19.809Z,65.70
2022-10-28T08:39:47.758Z,62.03
2022-10-28T08:42:36.436Z,56.63
2022-10-28T08:45:30.876Z,60.50
2022-10-28T08:48:14.753Z,56.60
2022-10-28T08:50:50.164Z,53.57
2022-10-28T08:53:22.312Z,54.20
2022-10-28T08:55:53.072Z,57.60
2022-10-28T08:58:24.841Z,52.70
2022-10-28T09:00:55.036Z,60.30
2022-10-28T09:03:25.433Z,54.33
2022-10-28T09:06:01.840Z,47.77
2022-10-28T09:08:32.696Z,49.47
2022-10-28T09:11:08.854Z,41.77
2022-10-28T09:13:55.482Z,39.13
2022-10-28T09:16:36.077Z,43.03
2022-10-28T09:19:13.461Z,47.00
2022-10-28T09:21:48.022Z,44.17
2022-10-28T09:24:21.162Z,42.83
2022-10-28T09:26:55.478Z,39.00
2022-10-28T09:29:41.807Z,42.40
2022-10-28T09:32:21.082Z,40.73
2022-10-28T09:34:55.574Z,36.23
2022-10-28T09:37:30.324Z,37.87
2022-10-28T09:40:03.752Z,43.57
2022-10-28T09:42:36.219Z,38.20
2022-10-28T09:45:07.164Z,35.37
2022-10-28T09:47:40.181Z,39.17
2022-10-28T09:50:15.925Z,36.40
2022-10-28T09:52:54.138Z,39.37
2022-10-28T09:55:23.829Z,35.13
2022-10-28T09:57:52.330Z,37.23
2022-10-28T10:00:20.787Z,32.47
2022-10-28T10:02:50.224Z,32.60
2022-10-28T10:05:19.774Z,29.97
2022-10-28T10:07:52.969Z,35.83
2022-10-28T10:10:25.471Z,31.63
2022-10-28T10:12:58.532Z,30.07
2022-10-28T10:15:31.679Z,29.30
2022-10-28T10:18:02.893Z,29.67
2022-10-28T10:20:48.413Z,30.70
2022-10-28T10:23:28.263Z,27.23
2022-10-28T10:25:59.530Z,27.93
2022-10-28T10:28:29.286Z,29.50
2022-10-28T10:30:59.018Z,29.37
2022-10-28T10:33:31.992Z,27.33
2022-10-28T10:36:03.675Z,24.33
2022-10-28T10:38:33.520Z,22.27
2022-10-28T10:41:01.478Z,25.70
2022-10-28T10:43:32.811Z,25.23
2022-10-28T10:46:03.078Z,23.57
2022-10-28T10:48:33.898Z,27.67
2022-10-28T10:51:08.048Z,24.97
2022-10-28T10:53:39.015Z,26.20
2022-10-28T10:56:09.634Z,24.80
2022-10-28T10:58:41.334Z,24.80
2022-10-28T11:01:11.042Z,20.03
2022-10-28T11:03:47.354Z,25.93
2022-10-28T11:06:23.882Z,29.90
2022-10-28T11:08:59.524Z,22.20
2022-10-28T11:11:34.996Z,22.97
2022-10-28T11:14:18.099Z,21.63
2022-10-28T11:16:50.807Z,19.17
2022-10-28T11:19:23.769Z,23.00
2022-10-28T11:22:14.723Z,21.33
2022-10-28T11:25:22.091Z,23.05
2022-10-28T11:28:04.043Z,20.70
2022-10-28T11:30:41.918Z,21.90
2022-10-28T11:33:29.394Z,20.48
2022-10-28T11:36:08.651Z,18.35
2022-10-28T11:38:55.460Z,19.65
2022-10-28T11:41:41.861Z,22.33
2022-10-28T11:44:21.821Z,14.77
2022-10-28T11:47:02.521Z,24.08
2022-10-28T11:50:01.614Z,16.63
2022-10-28T11:52:45.070Z,17.58
2022-10-28T11:55:21.885Z,14.57
2022-10-28T11:58:02.289Z,16.33
2022-10-28T12:00:51.040Z,15.35
2022-10-28T12:03:52.465Z,15.73
2022-10-28T12:06:27.486Z,15.73
2022-10-28T12:11:48.871Z,15.88
2022-10-28T12:14:25.218Z,17.13
2022-10-28T12:16:57.911Z,16.92
2022-10-28T12:19:30.848Z,18.95
2022-10-28T12:22:04.289Z,14.63
2022-10-28T12:24:36.568Z,16.13
2022-10-28T12:27:17.049Z,12.82
2022-10-28T12:29:51.613Z,16.17
2022-10-28T12:32:24.007Z,18.48
2022-10-28T12:34:56.377Z,16.85
2022-10-28T12:37:28.541Z,17.90
2022-10-28T12:40:00.723Z,15.60
2022-10-28T12:42:33.056Z,13.25
2022-10-28T12:45:07.764Z,13.18
2022-10-28T12:47:43.361Z,16.27
2022-10-28T12:50:21.526Z,13.95
2022-10-28T12:52:55.517Z,17.00
2022-10-28T12:55:32.840Z,11.07
2022-10-28T12:58:07.047Z,13.35
2022-10-28T13:00:41.506Z,11.30
2022-10-28T13:03:13.582Z,17.40
2022-10-28T13:05:45.267Z,11.30
2022-10-28T13:08:47.366Z,10.20
2022-10-28T13:11:55.870Z,11.80
2022-10-28T13:14:46.195Z,13.10
2022-10-28T13:17:30.870Z,14.52
2022-10-28T13:20:16.339Z,12.00
2022-10-28T13:23:07.677Z,13.33
2022-10-28T13:25:51.384Z,12.47
2022-10-28T13:28:21.887Z,9.53
2022-10-28T13:30:55.041Z,16.97
2022-10-28T13:33:26.644Z,13.30
2022-10-28T13:35:55.339Z,17.13
2022-10-28T13:38:27.398Z,12.70
2022-10-28T13:41:47.929Z,12.83
2022-10-28T13:44:29.021Z,15.37
2022-10-28T13:47:26.311Z,12.00
2022-10-28T13:50:22.935Z,15.20
2022-10-28T13:53:35.820Z,15.33
2022-10-28T13:56:17.660Z,15.20
2022-10-28T13:58:55.268Z,13.87
2022-10-28T14:01:40.672Z,14.97
2022-10-28T14:04:30.137Z,13.50
2022-10-28T14:07:21.531Z,15.03
2022-10-28T14:09:53.443Z,15.87
2022-10-28T14:12:26.703Z,18.40
2022-10-28T14:15:01.735Z,15.33
2022-10-28T14:17:36.332Z,14.40
2022-10-28T14:20:07.060Z,20.63
2022-10-28T14:22:38.125Z,21.90
2022-10-28T14:25:50.601Z,23.47
2022-10-28T14:28:54.494Z,32.87
2022-10-28T14:31:43.784Z,18.10
2022-10-28T14:34:37.670Z,17.80
2022-10-28T14:37:28.639Z,18.10
2022-10-28T14:40:09.269Z,20.30
2022-10-28T14:42:53.488Z,21.40
2022-10-28T14:45:29.543Z,20.13
2022-10-28T14:48:20.258Z,17.77
2022-10-28T14:50:51.441Z,17.70
2022-10-28T14:53:25.347Z,19.60
2022-10-28T14:56:00.805Z,19.93
2022-10-28T14:58:32.556Z,25.27
2022-10-28T15:01:24.364Z,23.30
2022-10-28T15:03:55.459Z,24.43
2022-10-28T15:06:39.070Z,25.73
2022-10-28T15:09:16.169Z,23.90
2022-10-28T15:11:47.577Z,18.07
2022-10-28T15:14:27.937Z,17.77
2022-10-28T15:16:56.519Z,18.40
2022-10-28T15:19:27.235Z,20.63
2022-10-28T15:22:02.849Z,21.70
2022-10-28T15:24:30.860Z,17.77
2022-10-28T15:27:00.307Z,26.57
2022-10-28T15:29:28.499Z,17.97
2022-10-28T15:32:16.293Z,18.80
2022-10-28T15:34:44.815Z,20.93
2022-10-28T15:37:18.354Z,20.37
2022-10-28T15:39:46.892Z,22.70
2022-10-28T15:42:41.223Z,23.23
2022-10-28T15:45:19.321Z,21.00
2022-10-28T15:47:48.363Z,18.33
2022-10-28T15:50:25.751Z,24.00
2022-10-28T15:52:54.716Z,26.43
2022-10-28T15:56:02.262Z,22.40
2022-10-28T15:58:36.458Z,25.17
2022-10-28T16:01:05.878Z,23.00
2022-10-28T16:03:43.661Z,20.10
2022-10-28T16:06:26.702Z,24.87
2022-10-28T16:09:07.292Z,23.03
2022-10-28T16:11:39.431Z,40.37
2022-10-28T16:14:33.197Z,31.20
2022-10-28T16:17:12.666Z,70.60
2022-10-28T16:19:44.446Z,146.20
2022-10-28T16:22:14.682Z,44.67
2022-10-28T16:24:42.753Z,38.40
2022-10-28T16:27:17.588Z,43.50
2022-10-28T16:29:47.152Z,33.40
2022-10-28T16:32:16.386Z,28.27
2022-10-28T16:34:44.811Z,22.53
2022-10-28T16:37:23.072Z,24.77
2022-10-28T16:39:51.451Z,22.57
2022-10-28T16:42:20.636Z,20.40
2022-10-28T16:44:50.948Z,22.93
2022-10-28T16:47:20.181Z,24.77
2022-10-28T16:49:54.052Z,24.80
2022-10-28T16:52:27.279Z,24.93
2022-10-28T16:54:55.636Z,40.27
2022-10-28T16:57:29.124Z,41.50
2022-10-28T17:00:01.856Z,50.83
2022-10-28T17:02:35.187Z,91.00
2022-10-28T17:05:07.797Z,74.97
2022-10-28T17:07:38.644Z,66.57
2022-10-28T17:10:17.451Z,70.43
2022-10-28T17:12:49.045Z,43.27
2022-10-28T17:15:22.189Z,60.67
2022-10-28T17:17:55.601Z,58.83
2022-10-28T17:20:27.232Z,82.90
2022-10-28T17:23:00.305Z,142.47
2022-10-28T17:25:31.010Z,124.80
2022-10-28T17:27:58.941Z,99.63
2022-10-28T17:30:28.323Z,63.03
2022-10-28T17:32:56.435Z,68.97
2022-10-28T17:35:25.183Z,54.13
2022-10-28T17:37:53.361Z,73.97
2022-10-28T17:40:21.654Z,133.07
2022-10-28T17:42:49.593Z,102.17
2022-10-28T17:45:20.997Z,75.30
2022-10-28T17:47:51.486Z,56.77
2022-10-28T17:50:19.480Z,72.10
2022-10-28T17:52:49.458Z,79.17
2022-10-28T17:55:17.499Z,60.07
2022-10-28T17:57:45.663Z,47.03
2022-10-28T18:00:14.909Z,56.30
2022-10-28T18:02:42.966Z,54.27
2022-10-28T18:05:12.516Z,56.40
2022-10-28T18:07:40.548Z,67.97
2022-10-28T18:10:09.791Z,81.87
2022-10-28T18:12:37.747Z,71.80
2022-10-28T18:15:06.489Z,51.37
2022-10-28T18:17:34.453Z,41.93
2022-10-28T18:20:02.459Z,36.37
2022-10-28T18:22:31.729Z,37.50
2022-10-28T18:24:59.711Z,37.30
2022-10-28T18:27:30.064Z,36.90
2022-10-28T18:29:57.948Z,47.10
2022-10-28T18:32:25.887Z,56.23
2022-10-28T18:34:53.935Z,46.37
2022-10-28T18:37:22.020Z,38.93
2022-10-28T18:39:51.295Z,34.43
2022-10-28T18:42:21.994Z,41.83
2022-10-28T18:44:50.206Z,45.53
2022-10-28T18:47:18.173Z,37.20
2022-10-28T18:49:46.235Z,43.93
2022-10-28T18:52:14.245Z,103.30
2022-10-28T18:54:42.399Z,85.83
2022-10-28T18:57:11.798Z,50.60
2022-10-28T18:59:52.353Z,54.27
2022-10-28T19:02:28.578Z,38.17
2022-10-28T19:04:58.062Z,38.53
2022-10-28T19:07:26.021Z,27.53
2022-10-28T19:09:53.966Z,36.33
2022-10-28T19:12:23.220Z,40.43
2022-10-28T19:14:51.141Z,29.33
2022-10-28T19:17:19.091Z,21.23
2022-10-28T19:19:49.025Z,22.07
2022-10-28T19:22:17.068Z,27.27
2022-10-28T19:24:45.338Z,23.80
2022-10-28T19:27:13.357Z,27.67
2022-10-28T19:29:42.670Z,26.70
2022-10-28T19:32:10.581Z,26.97
2022-10-28T19:34:38.924Z,23.30
2022-10-28T19:37:06.823Z,23.87
2022-10-28T19:39:34.780Z,20.83
2022-10-28T19:42:02.711Z,22.60
2022-10-28T19:44:30.757Z,21.63
2022-10-28T19:47:00.090Z,25.93
2022-10-28T19:49:32.473Z,24.60
2022-10-28T19:52:03.609Z,25.97
2022-10-28T19:54:31.753Z,21.07
2022-10-28T19:56:59.906Z,22.03
2022-10-28T19:59:28.078Z,23.43
2022-10-28T20:01:56.115Z,22.73
2022-10-28T20:04:29.031Z,21.57
2022-10-28T20:06:59.936Z,19.60
2022-10-28T20:09:29.106Z,17.30
2022-10-28T20:11:57.300Z,18.87
2022-10-28T20:14:25.437Z,20.90
2022-10-28T20:16:53.470Z,24.33
2022-10-28T20:19:21.436Z,28.70
2022-10-28T20:21:50.864Z,21.13
2022-10-28T20:24:19.760Z,22.33
2022-10-28T20:26:47.695Z,21.20
2022-10-28T20:29:15.698Z,26.37
2022-10-28T20:31:43.694Z,24.50
2022-10-28T20:34:11.707Z,25.70
2022-10-28T20:36:41.154Z,33.43
2022-10-28T20:39:13.797Z,33.97
2022-10-28T20:41:43.158Z,52.87
2022-10-28T20:44:11.407Z,29.43
2022-10-28T20:46:39.974Z,31.47
2022-10-28T20:49:09.710Z,27.97
2022-10-28T20:51:37.846Z,30.03
2022-10-28T20:54:06.391Z,32.87
2022-10-28T20:56:37.492Z,49.33
2022-10-28T20:59:06.421Z,57.43
2022-10-28T21:01:36.380Z,41.83
2022-10-28T21:04:07.119Z,36.20
2022-10-28T21:06:35.279Z,28.87
2022-10-28T21:09:05.021Z,32.10
2022-10-28T21:11:33.264Z,26.97
2022-10-28T21:14:03.141Z,34.23
2022-10-28T21:16:31.378Z,38.50
2022-10-28T21:19:00.135Z,35.90
2022-10-28T21:21:29.928Z,37.73
2022-10-28T21:23:57.860Z,33.13
2022-10-28T21:26:27.126Z,33.23
2022-10-28T21:28:56.364Z,32.27
2022-10-28T21:31:26.301Z,29.10
2022-10-28T21:33:54.282Z,27.43
2022-10-28T21:36:23.446Z,27.33
2022-10-28T21:38:55.065Z,28.73
2022-10-28T21:41:24.151Z,30.33
2022-10-28T21:43:53.950Z,27.40
2022-10-28T21:46:23.089Z,23.83
2022-10-28T21:48:53.388Z,22.10
2022-10-28T21:51:21.337Z,21.10
2022-10-28T21:53:49.311Z,29.90
2022-10-28T21:56:19.491Z,24.07
2022-10-28T21:58:49.013Z,20.80
2022-10-28T22:01:18.718Z,25.03
2022-10-28T22:03:46.985Z,25.03
2022-10-28T22:06:16.344Z,19.83
2022-10-28T22:08:44.308Z,21.73
2022-10-28T22:11:14.521Z,22.33
2022-10-28T22:13:42.794Z,22.77
2022-10-28T22:16:14.332Z,22.37
2022-10-28T22:18:42.490Z,20.13
2022-10-28T22:21:12.678Z,20.83
2022-10-28T22:23:42.526Z,20.67
2022-10-28T22:26:14.145Z,19.23
2022-10-28T22:28:42.679Z,26.40
2022-10-28T22:31:12.753Z,20.80
2022-10-28T22:33:40.945Z,19.27
2022-10-28T22:36:10.809Z,21.80
2022-10-28T22:38:38.949Z,18.87
2022-10-28T22:41:11.846Z,21.07
2022-10-28T22:43:40.498Z,17.27
2022-10-28T22:46:09.558Z,16.23
2022-10-28T22:48:37.783Z,19.50
2022-10-28T22:51:06.205Z,17.30
2022-10-28T22:53:34.405Z,18.60
2022-10-28T22:56:02.375Z,16.30
2022-10-28T22:58:31.707Z,17.87
2022-10-28T23:01:06.967Z,16.97
2022-10-28T23:03:39.551Z,15.70
2022-10-28T23:06:08.267Z,16.07
2022-10-28T23:08:36.401Z,19.87
2022-10-28T23:11:04.692Z,17.57
2022-10-28T23:13:34.239Z,20.07
2022-10-28T23:16:05.942Z,19.40
2022-10-28T23:18:34.142Z,21.80
2022-10-28T23:21:06.337Z,22.80
2022-10-28T23:23:34.523Z,21.07
2022-10-28T23:26:02.662Z,18.43
2022-10-28T23:28:30.847Z,22.53
2022-10-28T23:31:02.260Z,19.63
2022-10-28T23:33:31.219Z,16.93
2022-10-28T23:36:00.277Z,20.07
2022-10-28T23:38:28.819Z,18.47
2022-10-28T23:40:58.268Z,19.57
2022-10-28T23:43:26.309Z,18.13
2022-10-28T23:45:54.288Z,16.23
2022-10-28T23:48:24.198Z,16.73
2022-10-28T23:50:52.661Z,14.67
2022-10-28T23:53:21.511Z,16.60
2022-10-28T23:55:51.050Z,20.00
2022-10-28T23:58:20.635Z,16.40
